Time;durP1;ratioP1;P1;durP2;ratioP2;P2;SDS_P1;SDS_P2;PMS_P1;PMS_P2;Temp;Humidity;BMP_temperature;BMP_pressure;BME280_temperature;BME280_humidity;BME280_pressure;Samples;Min_cycle;Max_cycle;Signal;HPM_P1;HPM_P2
2023/06/03 00:00:05;;;;;;;4.00;2.70;;;;;;;-128.00;-1.00;-1.00;105498;1254;1004418;-78
2023/06/03 00:02:32;;;;;;;4.90;2.90;;;;;;;-128.00;-1.00;-1.00;105583;1253;1004516;-78
2023/06/03 00:05:01;;;;;;;5.30;3.10;;;;;;;-128.00;-1.00;-1.00;105554;1252;1004582;-78
2023/06/03 00:07:27;;;;;;;7.00;3.20;;;;;;;-128.00;-1.00;-1.00;105496;1253;1004563;-78
2023/06/03 00:09:54;;;;;;;5.40;2.40;;;;;;;-128.00;-1.00;-1.00;105538;1252;1004830;-78
2023/06/03 00:12:20;;;;;;;6.80;2.90;;;;;;;-128.00;-1.00;-1.00;105527;1253;1004208;-80
2023/06/03 00:14:47;;;;;;;3.90;2.60;;;;;;;-128.00;-1.00;-1.00;105629;1253;1004233;-80
2023/06/03 00:17:15;;;;;;;4.80;2.60;;;;;;;-128.00;-1.00;-1.00;105520;1254;1004878;-80
2023/06/03 00:19:42;;;;;;;9.10;3.00;;;;;;;-128.00;-1.00;-1.00;105505;1253;1046566;-80
2023/06/03 00:22:08;;;;;;;3.70;2.70;;;;;;;-128.00;-1.00;-1.00;105516;1253;1004013;-78
2023/06/03 00:24:35;;;;;;;4.80;2.80;;;;;;;-128.00;-1.00;-1.00;105544;1254;1004851;-80
2023/06/03 00:27:01;;;;;;;4.10;2.90;;;;;;;-128.00;-1.00;-1.00;105542;1252;1004834;-78
2023/06/03 00:29:28;;;;;;;5.00;3.00;;;;;;;-128.00;-1.00;-1.00;105524;1252;1004416;-80
2023/06/03 00:31:54;;;;;;;5.40;2.70;;;;;;;-128.00;-1.00;-1.00;105566;1251;1004480;-80
2023/06/03 00:34:20;;;;;;;5.00;3.10;;;;;;;-128.00;-1.00;-1.00;105571;1251;1004720;-78
2023/06/03 00:36:47;;;;;;;4.40;2.80;;;;;;;-128.00;-1.00;-1.00;105609;1251;1005114;-78
2023/06/03 00:39:13;;;;;;;4.40;3.30;;;;;;;-128.00;-1.00;-1.00;105621;1251;1003957;-78
2023/06/03 00:41:40;;;;;;;7.30;2.90;;;;;;;-128.00;-1.00;-1.00;105601;1251;1003737;-78
2023/06/03 00:44:06;;;;;;;4.90;2.70;;;;;;;-128.00;-1.00;-1.00;105618;1251;1004224;-78
2023/06/03 00:46:34;;;;;;;5.20;3.20;;;;;;;-128.00;-1.00;-1.00;105598;1251;1004731;-78
2023/06/03 00:49:01;;;;;;;4.70;3.20;;;;;;;-128.00;-1.00;-1.00;105539;1254;1004082;-80
2023/06/03 00:51:29;;;;;;;4.60;3.30;;;;;;;-128.00;-1.00;-1.00;105708;1254;1003313;-80
2023/06/03 00:53:55;;;;;;;5.40;3.30;;;;;;;-128.00;-1.00;-1.00;105303;1253;1004463;-80
2023/06/03 00:56:22;;;;;;;8.10;4.50;;;;;;;-128.00;-1.00;-1.00;105503;1254;1004288;-80
2023/06/03 00:58:49;;;;;;;10.90;3.80;;;;;;;-128.00;-1.00;-1.00;105593;1254;1003604;-80
2023/06/03 01:01:15;;;;;;;8.20;3.70;;;;;;;-128.00;-1.00;-1.00;105560;1254;1005417;-78
2023/06/03 01:03:42;;;;;;;6.50;3.20;;;;;;;-128.00;-1.00;-1.00;105518;1253;1004985;-80
2023/06/03 01:06:32;;;;;;;6.40;3.30;;;;;;;-128.00;-1.00;-1.00;105549;1253;1004489;-81
2023/06/03 01:09:03;;;;;;;7.00;2.80;;;;;;;-128.00;-1.00;-1.00;105498;1254;1045993;-78
2023/06/03 01:11:53;;;;;;;5.50;3.40;;;;;;;-128.00;-1.00;-1.00;105525;1252;1046594;-80
2023/06/03 01:14:25;;;;;;;5.40;3.60;;;;;;;-128.00;-1.00;-1.00;105513;1254;1061829;-80
2023/06/03 01:16:52;;;;;;;6.20;3.40;;;;;;;-128.00;-1.00;-1.00;105530;1253;1057266;-78
2023/06/03 01:19:32;;;;;;;5.00;3.20;;;;;;;-128.00;-1.00;-1.00;105390;1254;1004459;-78
2023/06/03 01:22:02;;;;;;;6.30;3.40;;;;;;;-128.00;-1.00;-1.00;105509;1254;1045296;-81
2023/06/03 01:24:32;;;;;;;5.00;3.30;;;;;;;-128.00;-1.00;-1.00;105537;1252;1046692;-79
2023/06/03 01:26:58;;;;;;;13.70;3.30;;;;;;;-128.00;-1.00;-1.00;105551;1254;1062285;-80
2023/06/03 01:29:25;;;;;;;8.50;4.40;;;;;;;-128.00;-1.00;-1.00;105506;1253;1004304;-77
2023/06/03 01:31:52;;;;;;;5.80;4.30;;;;;;;-128.00;-1.00;-1.00;105640;1251;1003958;-78
2023/06/03 01:34:19;;;;;;;6.70;3.30;;;;;;;-128.00;-1.00;-1.00;105607;1251;1004181;-81
2023/06/03 01:36:45;;;;;;;4.00;2.50;;;;;;;-128.00;-1.00;-1.00;105805;1251;1003812;-81
2023/06/03 01:39:11;;;;;;;8.70;3.60;;;;;;;-128.00;-1.00;-1.00;105569;1251;1004279;-77
2023/06/03 01:41:40;;;;;;;6.10;2.90;;;;;;;-128.00;-1.00;-1.00;105513;1251;1003799;-78
2023/06/03 01:44:06;;;;;;;6.50;2.70;;;;;;;-128.00;-1.00;-1.00;105472;1251;1004089;-80
2023/06/03 01:46:33;;;;;;;7.00;3.60;;;;;;;-128.00;-1.00;-1.00;105597;1251;1004735;-80
2023/06/03 01:48:59;;;;;;;4.40;3.50;;;;;;;-128.00;-1.00;-1.00;105544;1252;1005833;-80
2023/06/03 01:51:26;;;;;;;7.90;3.20;;;;;;;-128.00;-1.00;-1.00;105512;1254;1007019;-80
2023/06/03 01:53:52;;;;;;;8.20;4.50;;;;;;;-128.00;-1.00;-1.00;105520;1253;1004153;-77
2023/06/03 01:56:19;;;;;;;4.20;2.90;;;;;;;-128.00;-1.00;-1.00;105529;1253;1004376;-77
2023/06/03 01:58:46;;;;;;;10.00;3.60;;;;;;;-128.00;-1.00;-1.00;105555;1253;1005118;-78
2023/06/03 02:01:13;;;;;;;5.80;3.70;;;;;;;-128.00;-1.00;-1.00;105586;1253;1003595;-80
2023/06/03 02:03:40;;;;;;;4.30;3.10;;;;;;;-128.00;-1.00;-1.00;105513;1252;1004054;-78
2023/06/03 02:06:06;;;;;;;6.50;3.60;;;;;;;-128.00;-1.00;-1.00;105703;1253;1003389;-80
2023/06/03 02:08:36;;;;;;;9.20;3.60;;;;;;;-128.00;-1.00;-1.00;105497;1252;1004005;-80
2023/06/03 02:11:02;;;;;;;8.40;3.50;;;;;;;-128.00;-1.00;-1.00;105679;1254;1045288;-78
2023/06/03 02:13:29;;;;;;;6.90;3.10;;;;;;;-128.00;-1.00;-1.00;105613;1254;1004236;-80
2023/06/03 02:15:55;;;;;;;5.20;3.60;;;;;;;-128.00;-1.00;-1.00;105603;1254;1004844;-78
2023/06/03 02:18:22;;;;;;;7.40;3.80;;;;;;;-128.00;-1.00;-1.00;105249;1254;1003902;-80
2023/06/03 02:20:49;;;;;;;5.70;3.70;;;;;;;-128.00;-1.00;-1.00;105444;1254;1004138;-77
2023/06/03 02:23:15;;;;;;;5.40;3.20;;;;;;;-128.00;-1.00;-1.00;105420;1254;1005554;-78
2023/06/03 02:25:42;;;;;;;7.50;3.50;;;;;;;-128.00;-1.00;-1.00;105451;1253;1004601;-80
2023/06/03 02:28:09;;;;;;;6.40;3.40;;;;;;;-128.00;-1.00;-1.00;105628;1256;1004078;-78
2023/06/03 02:30:35;;;;;;;5.90;3.50;;;;;;;-128.00;-1.00;-1.00;105731;1251;1003921;-80
2023/06/03 02:33:02;;;;;;;5.90;3.60;;;;;;;-128.00;-1.00;-1.00;105638;1251;1004132;-77
2023/06/03 02:35:28;;;;;;;7.10;3.80;;;;;;;-128.00;-1.00;-1.00;105784;1251;1003765;-78
2023/06/03 02:37:55;;;;;;;6.10;3.30;;;;;;;-128.00;-1.00;-1.00;105726;1251;1004989;-77
2023/06/03 02:40:22;;;;;;;6.00;3.20;;;;;;;-128.00;-1.00;-1.00;105582;1251;1003901;-78
2023/06/03 02:42:48;;;;;;;7.10;4.00;;;;;;;-128.00;-1.00;-1.00;105487;1251;1003690;-77
2023/06/03 02:45:15;;;;;;;7.00;3.90;;;;;;;-128.00;-1.00;-1.00;105575;1251;1004479;-80
2023/06/03 02:47:41;;;;;;;6.60;3.60;;;;;;;-128.00;-1.00;-1.00;105562;1251;1004442;-77
2023/06/03 02:50:08;;;;;;;6.60;3.80;;;;;;;-128.00;-1.00;-1.00;105564;1253;1004000;-78
2023/06/03 02:52:35;;;;;;;5.70;3.20;;;;;;;-128.00;-1.00;-1.00;105384;1253;1005487;-80
2023/06/03 02:55:01;;;;;;;5.00;3.20;;;;;;;-128.00;-1.00;-1.00;105536;1253;1004456;-78
2023/06/03 02:57:28;;;;;;;5.30;3.10;;;;;;;-128.00;-1.00;-1.00;105706;1254;1006498;-78
2023/06/03 02:59:56;;;;;;;5.00;3.30;;;;;;;-128.00;-1.00;-1.00;105731;1253;1004557;-80
2023/06/03 03:02:24;;;;;;;4.50;3.20;;;;;;;-128.00;-1.00;-1.00;105657;1254;1004551;-77
2023/06/03 03:04:51;;;;;;;6.90;4.40;;;;;;;-128.00;-1.00;-1.00;105571;1253;1060575;-79
2023/06/03 03:07:17;;;;;;;5.60;3.30;;;;;;;-128.00;-1.00;-1.00;105534;1252;1003722;-80
2023/06/03 03:09:44;;;;;;;8.20;4.10;;;;;;;-128.00;-1.00;-1.00;105228;1254;1004635;-77
2023/06/03 03:12:10;;;;;;;7.50;3.80;;;;;;;-128.00;-1.00;-1.00;105491;1256;1004003;-77
2023/06/03 03:14:37;;;;;;;6.90;3.50;;;;;;;-128.00;-1.00;-1.00;105544;1254;1005099;-77
2023/06/03 03:17:03;;;;;;;7.30;3.20;;;;;;;-128.00;-1.00;-1.00;105511;1254;1004706;-80
2023/06/03 03:19:30;;;;;;;6.60;3.30;;;;;;;-128.00;-1.00;-1.00;105235;1254;1003952;-80
2023/06/03 03:21:56;;;;;;;7.00;3.30;;;;;;;-128.00;-1.00;-1.00;105514;1253;1006320;-80
2023/06/03 03:24:24;;;;;;;5.00;3.70;;;;;;;-128.00;-1.00;-1.00;105531;1253;1005033;-79
2023/06/03 03:26:50;;;;;;;5.30;3.20;;;;;;;-128.00;-1.00;-1.00;105550;1254;1003840;-78
2023/06/03 03:29:18;;;;;;;5.30;3.60;;;;;;;-128.00;-1.00;-1.00;105555;1254;1004906;-80
2023/06/03 03:31:45;;;;;;;5.60;3.70;;;;;;;-128.00;-1.00;-1.00;105432;1251;1003915;-78
2023/06/03 03:34:12;;;;;;;5.40;3.30;;;;;;;-128.00;-1.00;-1.00;105537;1251;1004944;-78
2023/06/03 03:36:39;;;;;;;6.20;3.70;;;;;;;-128.00;-1.00;-1.00;105554;1253;1003829;-80
2023/06/03 03:39:06;;;;;;;9.80;4.00;;;;;;;-128.00;-1.00;-1.00;105589;1251;1005195;-80
2023/06/03 03:41:32;;;;;;;7.20;4.50;;;;;;;-128.00;-1.00;-1.00;105569;1251;1004379;-80
2023/06/03 03:43:59;;;;;;;7.70;3.70;;;;;;;-128.00;-1.00;-1.00;105602;1251;1004682;-77
2023/06/03 03:46:25;;;;;;;6.00;3.30;;;;;;;-128.00;-1.00;-1.00;105567;1251;1003856;-77
2023/06/03 03:48:51;;;;;;;9.00;3.80;;;;;;;-128.00;-1.00;-1.00;105551;1254;1005299;-77
2023/06/03 03:51:18;;;;;;;5.90;3.20;;;;;;;-128.00;-1.00;-1.00;105544;1252;1003688;-77
2023/06/03 03:53:45;;;;;;;7.20;3.60;;;;;;;-128.00;-1.00;-1.00;105526;1252;1004909;-80
2023/06/03 03:56:19;;;;;;;9.60;5.00;;;;;;;-128.00;-1.00;-1.00;105655;1254;1005674;-77
2023/06/03 03:58:46;;;;;;;7.10;4.30;;;;;;;-128.00;-1.00;-1.00;105555;1253;1059357;-80
2023/06/03 04:01:18;;;;;;;8.00;4.10;;;;;;;-128.00;-1.00;-1.00;105491;1256;1003887;-80
2023/06/03 04:03:45;;;;;;;5.80;4.30;;;;;;;-128.00;-1.00;-1.00;105527;1253;1046678;-80
2023/06/03 04:06:14;;;;;;;9.10;4.20;;;;;;;-128.00;-1.00;-1.00;105247;1255;1003968;-78
2023/06/03 04:08:40;;;;;;;9.00;4.60;;;;;;;-128.00;-1.00;-1.00;105523;1253;1004158;-80
2023/06/03 04:11:08;;;;;;;7.60;4.60;;;;;;;-128.00;-1.00;-1.00;105534;1254;1003448;-78
2023/06/03 04:13:36;;;;;;;8.00;4.40;;;;;;;-128.00;-1.00;-1.00;105658;1254;1004962;-80
2023/06/03 04:16:07;;;;;;;11.60;4.30;;;;;;;-128.00;-1.00;-1.00;105500;1254;1003851;-78
2023/06/03 04:18:37;;;;;;;6.00;3.50;;;;;;;-128.00;-1.00;-1.00;105436;1254;1060878;-80
2023/06/03 04:21:05;;;;;;;7.80;3.80;;;;;;;-128.00;-1.00;-1.00;105538;1254;1057773;-80
2023/06/03 04:23:31;;;;;;;8.00;3.40;;;;;;;-128.00;-1.00;-1.00;105543;1254;1004695;-80
2023/06/03 04:25:58;;;;;;;5.60;3.40;;;;;;;-128.00;-1.00;-1.00;105352;1254;1004434;-80
2023/06/03 04:28:25;;;;;;;5.90;3.70;;;;;;;-128.00;-1.00;-1.00;105541;1254;1004165;-78
2023/06/03 04:30:52;;;;;;;5.80;3.60;;;;;;;-128.00;-1.00;-1.00;105585;1251;1005326;-78
2023/06/03 04:33:18;;;;;;;7.00;4.10;;;;;;;-128.00;-1.00;-1.00;105504;1251;1004358;-80
2023/06/03 04:35:45;;;;;;;7.60;3.70;;;;;;;-128.00;-1.00;-1.00;105529;1251;1004253;-77
2023/06/03 04:38:11;;;;;;;6.40;3.30;;;;;;;-128.00;-1.00;-1.00;105593;1251;1003543;-80
2023/06/03 04:40:38;;;;;;;8.90;3.60;;;;;;;-128.00;-1.00;-1.00;105585;1251;1004513;-78
2023/06/03 04:43:05;;;;;;;11.00;3.40;;;;;;;-128.00;-1.00;-1.00;105614;1251;1005038;-78
2023/06/03 04:45:32;;;;;;;13.20;3.80;;;;;;;-128.00;-1.00;-1.00;105618;1251;1004590;-78
2023/06/03 04:48:01;;;;;;;8.50;3.60;;;;;;;-128.00;-1.00;-1.00;105569;1251;1004492;-80
2023/06/03 04:50:34;;;;;;;5.70;3.40;;;;;;;-128.00;-1.00;-1.00;105453;1252;1046037;-78
2023/06/03 04:53:01;;;;;;;7.00;4.30;;;;;;;-128.00;-1.00;-1.00;105474;1253;1048726;-78
2023/06/03 04:55:28;;;;;;;11.70;4.10;;;;;;;-128.00;-1.00;-1.00;105434;1253;1004038;-77
2023/06/03 04:57:55;;;;;;;9.40;3.70;;;;;;;-128.00;-1.00;-1.00;105479;1254;1004341;-80
2023/06/03 05:00:22;;;;;;;6.60;3.60;;;;;;;-128.00;-1.00;-1.00;105338;1253;1004642;-80
2023/06/03 05:02:55;;;;;;;4.20;3.30;;;;;;;-128.00;-1.00;-1.00;105345;1253;1003531;-77
2023/06/03 05:05:23;;;;;;;7.50;4.20;;;;;;;-128.00;-1.00;-1.00;105459;1254;1046806;-78
2023/06/03 05:07:50;;;;;;;11.80;4.30;;;;;;;-128.00;-1.00;-1.00;105497;1254;1003490;-80
2023/06/03 05:10:20;;;;;;;11.50;5.00;;;;;;;-128.00;-1.00;-1.00;105459;1254;1004333;-78
2023/06/03 05:12:48;;;;;;;14.00;5.00;;;;;;;-128.00;-1.00;-1.00;105303;1253;1059128;-81
2023/06/03 05:15:15;;;;;;;12.10;6.80;;;;;;;-128.00;-1.00;-1.00;105285;1259;1004530;-77
2023/06/03 05:17:42;;;;;;;6.60;4.70;;;;;;;-128.00;-1.00;-1.00;105367;1254;1004207;-80
2023/06/03 05:20:09;;;;;;;9.60;5.80;;;;;;;-128.00;-1.00;-1.00;105464;1254;1004212;-78
2023/06/03 05:22:35;;;;;;;9.40;4.70;;;;;;;-128.00;-1.00;-1.00;105476;1254;1005921;-78
2023/06/03 05:25:04;;;;;;;11.70;4.90;;;;;;;-128.00;-1.00;-1.00;105367;1253;1004544;-80
2023/06/03 05:27:30;;;;;;;8.30;3.90;;;;;;;-128.00;-1.00;-1.00;105529;1254;1004127;-81
2023/06/03 05:29:56;;;;;;;7.40;3.70;;;;;;;-128.00;-1.00;-1.00;105585;1253;1003653;-81
2023/06/03 05:32:23;;;;;;;7.20;4.10;;;;;;;-128.00;-1.00;-1.00;105585;1251;1005208;-81
2023/06/03 05:34:49;;;;;;;7.80;4.20;;;;;;;-128.00;-1.00;-1.00;105599;1251;1004862;-81
2023/06/03 05:37:17;;;;;;;8.00;3.50;;;;;;;-128.00;-1.00;-1.00;105511;1251;1004836;-78
2023/06/03 05:39:43;;;;;;;6.30;3.30;;;;;;;-128.00;-1.00;-1.00;105458;1251;1003654;-78
2023/06/03 05:42:10;;;;;;;6.40;3.60;;;;;;;-128.00;-1.00;-1.00;105483;1251;1005154;-79
2023/06/03 05:44:36;;;;;;;7.20;3.10;;;;;;;-128.00;-1.00;-1.00;105583;1251;1004553;-81
2023/06/03 05:47:03;;;;;;;5.60;3.20;;;;;;;-128.00;-1.00;-1.00;105628;1251;1005003;-79
2023/06/03 05:49:29;;;;;;;3.60;2.20;;;;;;;-128.00;-1.00;-1.00;105539;1253;1004447;-81
2023/06/03 05:51:56;;;;;;;6.00;2.20;;;;;;;-128.00;-1.00;-1.00;105512;1254;1004397;-78
2023/06/03 05:54:24;;;;;;;9.20;2.90;;;;;;;-128.00;-1.00;-1.00;105565;1254;1004108;-78
2023/06/03 05:56:51;;;;;;;3.20;2.20;;;;;;;-128.00;-1.00;-1.00;105399;1254;1004617;-78
2023/06/03 05:59:17;;;;;;;5.20;2.20;;;;;;;-128.00;-1.00;-1.00;105547;1253;1004427;-78
2023/06/03 06:01:43;;;;;;;4.80;2.50;;;;;;;-128.00;-1.00;-1.00;105584;1254;1004289;-78
2023/06/03 06:04:10;;;;;;;3.40;2.00;;;;;;;-128.00;-1.00;-1.00;105489;1256;1004244;-78
2023/06/03 06:06:36;;;;;;;8.10;2.40;;;;;;;-128.00;-1.00;-1.00;105568;1253;1003832;-78
2023/06/03 06:09:03;;;;;;;7.40;2.00;;;;;;;-128.00;-1.00;-1.00;105576;1254;1004526;-82
2023/06/03 06:11:30;;;;;;;9.90;2.60;;;;;;;-128.00;-1.00;-1.00;105563;1254;1003715;-78
2023/06/03 06:13:56;;;;;;;5.90;2.20;;;;;;;-128.00;-1.00;-1.00;105545;1252;1004109;-78
2023/06/03 06:16:23;;;;;;;4.90;1.70;;;;;;;-128.00;-1.00;-1.00;105539;1254;1006697;-81
2023/06/03 06:18:49;;;;;;;6.50;2.00;;;;;;;-128.00;-1.00;-1.00;105545;1251;1003442;-78
2023/06/03 06:21:16;;;;;;;5.50;2.10;;;;;;;-128.00;-1.00;-1.00;105514;1254;1003690;-78
2023/06/03 06:23:43;;;;;;;5.40;1.40;;;;;;;-128.00;-1.00;-1.00;105480;1254;1005875;-78
2023/06/03 06:26:09;;;;;;;4.00;2.20;;;;;;;-128.00;-1.00;-1.00;105477;1256;1003866;-81
2023/06/03 06:28:36;;;;;;;8.40;2.80;;;;;;;-128.00;-1.00;-1.00;105376;1253;1003888;-81
2023/06/03 06:31:06;;;;;;;4.30;2.00;;;;;;;-128.00;-1.00;-1.00;105384;1251;1003492;-78
2023/06/03 06:33:33;;;;;;;6.10;2.10;;;;;;;-128.00;-1.00;-1.00;105543;1251;1061415;-78
2023/06/03 06:36:16;;;;;;;3.70;2.30;;;;;;;-128.00;-1.00;-1.00;105548;1254;1003911;-78
2023/06/03 06:38:42;;;;;;;4.90;2.60;;;;;;;-128.00;-1.00;-1.00;105492;1252;1060375;-81
2023/06/03 06:41:11;;;;;;;7.30;2.90;;;;;;;-128.00;-1.00;-1.00;105533;1253;1004059;-81
2023/06/03 06:43:39;;;;;;;10.60;2.10;;;;;;;-128.00;-1.00;-1.00;105347;1254;1003677;-78
2023/06/03 06:46:05;;;;;;;4.50;2.10;;;;;;;-128.00;-1.00;-1.00;105374;1251;1005690;-78
2023/06/03 06:48:34;;;;;;;7.80;2.80;;;;;;;-128.00;-1.00;-1.00;105532;1254;1005977;-78
2023/06/03 06:51:00;;;;;;;7.50;2.40;;;;;;;-128.00;-1.00;-1.00;105319;1253;1059385;-78
2023/06/03 06:53:27;;;;;;;4.80;2.00;;;;;;;-128.00;-1.00;-1.00;105442;1251;1004508;-81
2023/06/03 06:55:55;;;;;;;10.70;2.80;;;;;;;-128.00;-1.00;-1.00;105454;1253;1004964;-83
2023/06/03 06:58:25;;;;;;;5.50;1.90;;;;;;;-128.00;-1.00;-1.00;105501;1254;1004012;-78
2023/06/03 07:00:51;;;;;;;5.00;1.90;;;;;;;-128.00;-1.00;-1.00;105438;1253;1058086;-81
2023/06/03 07:03:19;;;;;;;4.00;1.90;;;;;;;-128.00;-1.00;-1.00;105457;1253;1004875;-79
2023/06/03 07:05:46;;;;;;;9.60;2.60;;;;;;;-128.00;-1.00;-1.00;105480;1252;1003945;-78
2023/06/03 07:08:12;;;;;;;7.70;2.20;;;;;;;-128.00;-1.00;-1.00;105520;1252;1003796;-78
2023/06/03 07:10:39;;;;;;;4.20;2.40;;;;;;;-128.00;-1.00;-1.00;105479;1254;1004556;-78
2023/06/03 07:13:06;;;;;;;5.20;1.70;;;;;;;-128.00;-1.00;-1.00;105485;1253;1005339;-81
2023/06/03 07:15:33;;;;;;;20.40;5.60;;;;;;;-128.00;-1.00;-1.00;105437;1254;1003977;-81
2023/06/03 07:17:59;;;;;;;4.80;2.50;;;;;;;-128.00;-1.00;-1.00;105468;1252;1004107;-78
2023/06/03 07:20:33;;;;;;;4.10;2.00;;;;;;;-128.00;-1.00;-1.00;105525;1254;1005716;-78
2023/06/03 07:23:00;;;;;;;12.30;3.20;;;;;;;-128.00;-1.00;-1.00;105467;1252;1063420;-81
2023/06/03 07:25:34;;;;;;;4.80;2.10;;;;;;;-128.00;-1.00;-1.00;105481;1252;1005066;-78
2023/06/03 07:28:05;;;;;;;5.00;1.70;;;;;;;-128.00;-1.00;-1.00;105497;1252;1059074;-82
2023/06/03 07:30:35;;;;;;;4.80;1.80;;;;;;;-128.00;-1.00;-1.00;105518;1253;1045394;-81
2023/06/03 07:33:02;;;;;;;8.00;4.00;;;;;;;-128.00;-1.00;-1.00;105471;1253;1046330;-81
2023/06/03 07:35:29;;;;;;;7.10;2.20;;;;;;;-128.00;-1.00;-1.00;105539;1254;1004142;-81
2023/06/03 07:37:56;;;;;;;4.60;2.40;;;;;;;-128.00;-1.00;-1.00;105479;1253;1005668;-78
2023/06/03 07:40:40;;;;;;;4.60;2.10;;;;;;;-128.00;-1.00;-1.00;105227;1253;1004880;-81
2023/06/03 07:43:11;;;;;;;5.70;2.40;;;;;;;-128.00;-1.00;-1.00;105435;1253;1044967;-78
2023/06/03 07:45:37;;;;;;;2.90;1.50;;;;;;;-128.00;-1.00;-1.00;105490;1251;1046638;-78
2023/06/03 07:48:04;;;;;;;6.80;1.90;;;;;;;-128.00;-1.00;-1.00;105554;1250;1003975;-79
2023/06/03 07:50:31;;;;;;;2.50;1.70;;;;;;;-128.00;-1.00;-1.00;105535;1253;1003985;-81
2023/06/03 07:53:02;;;;;;;6.00;2.30;;;;;;;-128.00;-1.00;-1.00;105495;1253;1004537;-78
2023/06/03 07:55:39;;;;;;;6.50;2.30;;;;;;;-128.00;-1.00;-1.00;105344;1252;1045878;-78
2023/06/03 07:58:05;;;;;;;6.30;2.20;;;;;;;-128.00;-1.00;-1.00;105490;1252;1047419;-78
2023/06/03 08:00:33;;;;;;;5.80;1.90;;;;;;;-128.00;-1.00;-1.00;105413;1252;1004000;-78
2023/06/03 08:03:00;;;;;;;4.50;2.00;;;;;;;-128.00;-1.00;-1.00;105546;1253;1004268;-81
2023/06/03 08:05:32;;;;;;;4.70;2.20;;;;;;;-128.00;-1.00;-1.00;105474;1254;1004452;-79
2023/06/03 08:07:58;;;;;;;7.60;2.40;;;;;;;-128.00;-1.00;-1.00;105488;1251;1044467;-78
2023/06/03 08:10:25;;;;;;;4.70;2.00;;;;;;;-128.00;-1.00;-1.00;105518;1251;1004709;-78
2023/06/03 08:12:52;;;;;;;3.60;2.30;;;;;;;-128.00;-1.00;-1.00;105499;1252;1003422;-78
2023/06/03 08:15:28;;;;;;;4.30;2.10;;;;;;;-128.00;-1.00;-1.00;105528;1251;1003941;-81
2023/06/03 08:17:55;;;;;;;4.60;2.10;;;;;;;-128.00;-1.00;-1.00;105530;1253;1061037;-82
2023/06/03 08:20:26;;;;;;;4.80;1.80;;;;;;;-128.00;-1.00;-1.00;105499;1252;1004861;-79
2023/06/03 08:22:52;;;;;;;10.60;2.50;;;;;;;-128.00;-1.00;-1.00;105367;1253;1046716;-78
2023/06/03 08:25:19;;;;;;;5.10;1.90;;;;;;;-128.00;-1.00;-1.00;105530;1253;1004026;-79
2023/06/03 08:27:45;;;;;;;5.60;2.20;;;;;;;-128.00;-1.00;-1.00;105529;1253;1003895;-81
2023/06/03 08:30:14;;;;;;;5.80;2.00;;;;;;;-128.00;-1.00;-1.00;105507;1252;1004254;-79
2023/06/03 08:32:41;;;;;;;3.20;2.30;;;;;;;-128.00;-1.00;-1.00;105546;1253;1044558;-81
2023/06/03 08:35:11;;;;;;;7.00;2.50;;;;;;;-128.00;-1.00;-1.00;105540;1253;1004777;-81
2023/06/03 08:37:38;;;;;;;7.20;2.80;;;;;;;-128.00;-1.00;-1.00;105535;1253;1063743;-79
2023/06/03 08:40:09;;;;;;;4.20;1.80;;;;;;;-128.00;-1.00;-1.00;105356;1253;1003466;-82
2023/06/03 08:42:46;;;;;;;2.90;1.80;;;;;;;-128.00;-1.00;-1.00;105523;1252;1059550;-78
2023/06/03 08:45:16;;;;;;;4.80;2.30;;;;;;;-128.00;-1.00;-1.00;105508;1252;1044425;-78
2023/06/03 08:48:01;;;;;;;5.20;2.00;;;;;;;-128.00;-1.00;-1.00;105513;1253;1047091;-82
2023/06/03 08:50:27;;;;;;;7.00;2.20;;;;;;;-128.00;-1.00;-1.00;105544;1253;1063412;-79
2023/06/03 08:52:54;;;;;;;4.40;2.00;;;;;;;-128.00;-1.00;-1.00;105512;1253;1004042;-79
2023/06/03 08:55:21;;;;;;;5.90;2.00;;;;;;;-128.00;-1.00;-1.00;105486;1252;1004577;-79
2023/06/03 08:58:07;;;;;;;3.00;1.50;;;;;;;-128.00;-1.00;-1.00;105541;1253;1004511;-82
2023/06/03 09:00:34;;;;;;;3.40;1.90;;;;;;;-128.00;-1.00;-1.00;105216;1253;1046851;-79
2023/06/03 09:03:01;;;;;;;5.30;2.00;;;;;;;-128.00;-1.00;-1.00;105500;1253;1004546;-82
2023/06/03 09:05:28;;;;;;;5.70;2.00;;;;;;;-128.00;-1.00;-1.00;105479;1253;1003695;-82
2023/06/03 09:07:54;;;;;;;5.60;1.90;;;;;;;-128.00;-1.00;-1.00;105545;1252;1004742;-79
2023/06/03 09:10:21;;;;;;;4.90;2.10;;;;;;;-128.00;-1.00;-1.00;105355;1253;1004475;-79
2023/06/03 09:12:48;;;;;;;7.10;2.20;;;;;;;-128.00;-1.00;-1.00;105502;1253;1004319;-78
2023/06/03 09:15:14;;;;;;;4.10;2.00;;;;;;;-128.00;-1.00;-1.00;105519;1252;1004833;-82
2023/06/03 09:17:41;;;;;;;5.90;2.50;;;;;;;-128.00;-1.00;-1.00;105549;1253;1004070;-79
2023/06/03 09:20:09;;;;;;;3.80;2.30;;;;;;;-128.00;-1.00;-1.00;105515;1252;1005216;-82
2023/06/03 09:22:36;;;;;;;6.30;2.70;;;;;;;-128.00;-1.00;-1.00;105344;1254;1004549;-82
2023/06/03 09:25:03;;;;;;;3.40;1.90;;;;;;;-128.00;-1.00;-1.00;105513;1253;1004861;-79
2023/06/03 09:27:30;;;;;;;4.40;2.10;;;;;;;-128.00;-1.00;-1.00;105415;1254;1004146;-82
2023/06/03 09:29:56;;;;;;;6.00;2.10;;;;;;;-128.00;-1.00;-1.00;105512;1253;1004216;-79
2023/06/03 09:32:23;;;;;;;9.50;2.50;;;;;;;-128.00;-1.00;-1.00;105453;1253;1003399;-82
2023/06/03 09:34:50;;;;;;;6.50;2.00;;;;;;;-128.00;-1.00;-1.00;105513;1253;1004655;-79
2023/06/03 09:37:16;;;;;;;2.90;1.70;;;;;;;-128.00;-1.00;-1.00;105555;1252;1004505;-82
2023/06/03 09:39:43;;;;;;;5.50;1.80;;;;;;;-128.00;-1.00;-1.00;105513;1253;1003688;-79
2023/06/03 09:42:10;;;;;;;4.50;2.30;;;;;;;-128.00;-1.00;-1.00;105545;1252;1003936;-79
2023/06/03 09:44:40;;;;;;;4.10;2.30;;;;;;;-128.00;-1.00;-1.00;105490;1252;1005214;-79
2023/06/03 09:47:08;;;;;;;3.20;2.00;;;;;;;-128.00;-1.00;-1.00;105541;1253;1045183;-83
2023/06/03 09:49:35;;;;;;;4.00;1.60;;;;;;;-128.00;-1.00;-1.00;105390;1254;1004918;-79
2023/06/03 09:52:03;;;;;;;5.10;2.20;;;;;;;-128.00;-1.00;-1.00;105530;1251;1004381;-82
2023/06/03 09:54:30;;;;;;;;;;;;;;;-128.00;-1.00;-1.00;105514;1253;1003711;-82
2023/06/03 09:56:56;;;;;;;4.30;2.10;;;;;;;-128.00;-1.00;-1.00;105523;1253;1004942;-79
2023/06/03 09:59:25;;;;;;;3.40;1.90;;;;;;;-128.00;-1.00;-1.00;105296;1252;1003691;-79
2023/06/03 10:01:53;;;;;;;6.50;1.80;;;;;;;-128.00;-1.00;-1.00;105533;1252;1047465;-79
2023/06/03 10:04:22;;;;;;;7.10;1.80;;;;;;;-128.00;-1.00;-1.00;105502;1252;1003953;-82
2023/06/03 10:07:21;;;;;;;3.20;1.60;;;;;;;-128.00;-1.00;-1.00;105513;1254;1058393;-79
2023/06/03 10:09:47;;;;;;;3.60;1.90;;;;;;;-128.00;-1.00;-1.00;105174;1253;1060705;-79
2023/06/03 10:12:14;;;;;;;9.20;4.20;;;;;;;-128.00;-1.00;-1.00;105510;1252;1004802;-79
2023/06/03 10:14:45;;;;;;;4.10;1.90;;;;;;;-128.00;-1.00;-1.00;105385;1252;1004852;-79
2023/06/03 10:17:13;;;;;;;4.20;2.10;;;;;;;-128.00;-1.00;-1.00;105539;1252;1061527;-79
2023/06/03 10:19:41;;;;;;;7.30;1.80;;;;;;;-128.00;-1.00;-1.00;105557;1252;1004750;-79
2023/06/03 10:22:09;;;;;;;2.90;1.80;;;;;;;-128.00;-1.00;-1.00;105545;1252;1004593;-82
2023/06/03 10:24:42;;;;;;;6.60;2.80;;;;;;;-128.00;-1.00;-1.00;105517;1252;1004206;-79
2023/06/03 10:27:13;;;;;;;3.60;1.90;;;;;;;-128.00;-1.00;-1.00;105485;1251;1048770;-83
2023/06/03 10:29:39;;;;;;;6.30;3.00;;;;;;;-128.00;-1.00;-1.00;105517;1253;1063273;-79
2023/06/03 10:32:06;;;;;;;4.10;1.80;;;;;;;-128.00;-1.00;-1.00;105565;1253;1004332;-80
2023/06/03 10:34:39;;;;;;;4.90;1.90;;;;;;;-128.00;-1.00;-1.00;105528;1253;1003921;-80
2023/06/03 10:37:06;;;;;;;2.80;1.70;;;;;;;-128.00;-1.00;-1.00;105541;1253;1044764;-79
2023/06/03 10:39:32;;;;;;;6.60;2.00;;;;;;;-128.00;-1.00;-1.00;105376;1253;1004401;-79
2023/06/03 10:42:03;;;;;;;6.40;1.90;;;;;;;-128.00;-1.00;-1.00;105582;1252;1005253;-79
2023/06/03 10:44:30;;;;;;;4.60;1.80;;;;;;;-128.00;-1.00;-1.00;105550;1253;1058831;-82
2023/06/03 10:47:21;;;;;;;6.70;2.20;;;;;;;-128.00;-1.00;-1.00;105370;1252;1003667;-82
2023/06/03 10:49:55;;;;;;;4.20;1.90;;;;;;;-128.00;-1.00;-1.00;105523;1253;1045019;-79
2023/06/03 10:52:48;;;;;;;7.00;2.30;;;;;;;-128.00;-1.00;-1.00;105433;1253;1046518;-82
2023/06/03 10:55:48;;;;;;;9.10;1.80;;;;;;;-128.00;-1.00;-1.00;105582;1253;1061643;-82
2023/06/03 10:58:19;;;;;;;6.10;1.80;;;;;;;-128.00;-1.00;-1.00;105550;1252;1058988;-79
2023/06/03 11:00:52;;;;;;;9.60;1.60;;;;;;;-128.00;-1.00;-1.00;105516;1253;1059422;-79
2023/06/03 11:03:21;;;;;;;2.60;1.70;;;;;;;-128.00;-1.00;-1.00;105585;1253;1045212;-79
2023/06/03 11:05:48;;;;;;;8.90;2.20;;;;;;;-128.00;-1.00;-1.00;105582;1252;1047279;-79
2023/06/03 11:08:42;;;;;;;7.00;1.60;;;;;;;-128.00;-1.00;-1.00;105572;1252;1004547;-83
2023/06/03 11:11:08;;;;;;;4.80;1.80;;;;;;;-128.00;-1.00;-1.00;105494;1253;1057890;-83
2023/06/03 11:13:40;;;;;;;6.40;1.40;;;;;;;-128.00;-1.00;-1.00;105459;1253;1004487;-82
2023/06/03 11:16:06;;;;;;;2.40;1.40;;;;;;;-128.00;-1.00;-1.00;105549;1252;1043906;-79
2023/06/03 11:18:33;;;;;;;7.30;1.70;;;;;;;-128.00;-1.00;-1.00;105563;1252;1003471;-82
2023/06/03 11:21:00;;;;;;;4.80;1.50;;;;;;;-128.00;-1.00;-1.00;105458;1253;1005068;-79